Time,TemperatureF,DewpointF,PressureIn,WindDirection,WindDirectionDegrees,WindSpeedMPH,WindSpeedGustMPH,Humidity,HourlyPrecipIn,Conditions,Clouds,dailyrainin,SoftwareType,DateUTC
2013-10-24 00:02:00,38.8,33.4,28.74,North,5,0.0,2.0,81,0.00,,,0.02,meteohub,2013-10-24 04:02:00,
2013-10-24 00:05:00,38.8,33.4,28.74,ESE,117,0.0,2.0,81,0.00,,,0.00,meteohub,2013-10-24 04:05:00,
2013-10-24 00:08:00,38.8,33.4,28.74,SE,146,0.0,2.0,81,0.00,,,0.00,meteohub,2013-10-24 04:08:00,
2013-10-24 00:11:00,38.8,33.4,28.74,NW,311,1.0,2.0,81,0.00,,,0.00,meteohub,2013-10-24 04:11:00,
2013-10-24 00:12:00,38.8,33.4,28.74,NW,311,0.0,2.0,81,0.00,,,0.00,meteohub,2013-10-24 04:12:00,
2013-10-24 00:17:00,39.0,33.6,28.75,West,265,2.0,2.0,81,0.00,,,0.00,meteohub,2013-10-24 04:17:00,
2013-10-24 00:22:00,39.0,33.6,28.75,West,279,0.0,3.0,81,0.00,,,0.00,meteohub,2013-10-24 04:22:00,
2013-10-24 00:27:00,38.8,33.3,28.74,ESE,123,0.0,3.0,80,0.00,,,0.00,meteohub,2013-10-24 04:27:00,
2013-10-24 00:32:00,38.8,33.3,28.74,ESE,104,0.0,3.0,80,0.00,,,0.00,meteohub,2013-10-24 04:32:00,
2013-10-24 00:37:00,38.8,33.3,28.74,SE,138,1.0,3.0,80,0.00,,,0.00,meteohub,2013-10-24 04:37:00,
2013-10-24 00:42:00,38.8,33.3,28.74,SSE,159,0.0,3.0,80,0.00,,,0.00,meteohub,2013-10-24 04:42:00,
2013-10-24 00:47:00,38.7,33.1,28.74,SE,144,0.0,3.0,80,0.00,,,0.00,meteohub,2013-10-24 04:47:00,
2013-10-24 00:52:00,38.7,33.1,28.74,SSE,163,0.0,3.0,80,0.00,,,0.00,meteohub,2013-10-24 04:52:00,
2013-10-24 00:57:00,38.5,33.1,28.74,SSE,160,0.0,2.0,81,0.00,,,0.00,meteohub,2013-10-24 04:57:00,
2013-10-24 01:06:00,38.1,32.7,28.75,SSE,159,0.0,3.0,81,0.00,,,0.00,meteohub,2013-10-24 05:06:00,
2013-10-24 01:12:00,37.9,32.9,28.75,SSE,158,0.0,2.0,82,0.00,,,0.00,meteohub,2013-10-24 05:12:00,
2013-10-24 01:17:00,37.8,32.7,28.75,ESE,116,0.0,2.0,82,0.00,,,0.00,meteohub,2013-10-24 05:17:00,
2013-10-24 01:22:00,37.6,32.9,28.75,SSW,196,0.0,3.0,83,0.00,,,0.00,meteohub,2013-10-24 05:22:00,
2013-10-24 01:27:00,37.4,32.7,28.75,SW,231,1.0,3.0,83,0.00,,,0.00,meteohub,2013-10-24 05:27:00,
2013-10-24 01:32:00,37.6,32.9,28.75,West,261,0.0,3.0,83,0.00,,,0.00,meteohub,2013-10-24 05:32:00,
2013-10-24 01:37:00,37.4,32.7,28.75,South,184,1.0,3.0,83,0.00,,,0.00,meteohub,2013-10-24 05:37:00,
2013-10-24 01:42:00,37.4,32.7,28.75,SW,221,0.0,2.0,83,0.00,,,0.00,meteohub,2013-10-24 05:42:00,
2013-10-24 01:47:00,37.6,32.9,28.76,WNW,297,2.0,3.0,83,0.00,,,0.00,meteohub,2013-10-24 05:47:00,
2013-10-24 01:52:00,37.8,33.1,28.76,WNW,303,0.0,3.0,83,0.00,,,0.00,meteohub,2013-10-24 05:52:00,
2013-10-24 01:57:00,37.8,33.1,28.76,WNW,302,0.0,3.0,83,0.00,,,0.00,meteohub,2013-10-24 05:57:00,
2013-10-24 02:02:00,37.8,33.1,28.76,West,275,0.0,2.0,83,0.00,,,0.00,meteohub,2013-10-24 06:02:00,
2013-10-24 02:07:00,37.6,32.9,28.76,ESE,121,0.0,2.0,83,0.00,,,0.00,meteohub,2013-10-24 06:07:00,
2013-10-24 02:12:00,37.4,32.7,28.76,East,101,0.0,2.0,83,0.00,,,0.00,meteohub,2013-10-24 06:12:00,
2013-10-24 02:17:00,37.2,32.9,28.76,ESE,107,2.0,2.0,84,0.00,,,0.00,meteohub,2013-10-24 06:17:00,
2013-10-24 02:22:00,37.2,32.9,28.76,ESE,103,1.0,2.0,84,0.00,,,0.00,meteohub,2013-10-24 06:22:00,
2013-10-24 02:27:00,37.0,32.7,28.76,ESE,118,1.0,3.0,84,0.00,,,0.00,meteohub,2013-10-24 06:27:00,
2013-10-24 02:32:00,37.0,32.9,28.76,SW,234,0.0,3.0,85,0.00,,,0.00,meteohub,2013-10-24 06:32:00,
2013-10-24 02:37:00,37.0,32.9,28.76,SE,128,1.0,3.0,85,0.00,,,0.00,meteohub,2013-10-24 06:37:00,
2013-10-24 02:42:00,37.2,32.9,28.75,SE,126,0.0,2.0,84,0.00,,,0.00,meteohub,2013-10-24 06:42:00,
2013-10-24 02:47:00,37.2,32.9,28.76,ESE,113,0.0,2.0,84,0.00,,,0.00,meteohub,2013-10-24 06:47:00,
2013-10-24 02:52:00,37.2,32.9,28.76,SE,136,0.0,2.0,84,0.00,,,0.00,meteohub,2013-10-24 06:52:00,
2013-10-24 02:57:00,37.2,32.9,28.76,East,84,1.0,2.0,84,0.00,,,0.00,meteohub,2013-10-24 06:57:00,
2013-10-24 03:02:00,37.6,33.3,28.76,SE,142,0.0,3.0,84,0.00,,,0.00,meteohub,2013-10-24 07:02:00,
2013-10-24 03:07:00,37.6,32.9,28.76,ESE,103,2.0,3.0,83,0.00,,,0.00,meteohub,2013-10-24 07:07:00,
2013-10-24 03:12:00,37.8,33.4,28.76,ESE,109,1.0,4.0,84,0.00,,,0.00,meteohub,2013-10-24 07:12:00,
2013-10-24 03:17:00,37.8,33.4,28.76,East,101,0.0,4.0,84,0.00,,,0.00,meteohub,2013-10-24 07:17:00,
2013-10-24 03:22:00,37.6,32.9,28.77,ENE,70,0.0,4.0,83,0.00,,,0.00,meteohub,2013-10-24 07:22:00,
2013-10-24 03:27:00,37.6,32.9,28.76,ESE,105,0.0,2.0,83,0.00,,,0.00,meteohub,2013-10-24 07:27:00,
2013-10-24 03:32:00,37.6,32.9,28.76,ESE,121,0.0,1.0,83,0.00,,,0.00,meteohub,2013-10-24 07:32:00,
2013-10-24 03:37:00,37.6,33.3,28.76,ESE,121,0.0,2.0,84,0.00,,,0.00,meteohub,2013-10-24 07:37:00,
2013-10-24 03:42:00,37.6,32.9,28.76,ESE,116,1.0,2.0,83,0.00,,,0.00,meteohub,2013-10-24 07:42:00,
2013-10-24 03:47:00,37.6,32.9,28.76,East,95,1.0,2.0,83,0.00,,,0.00,meteohub,2013-10-24 07:47:00,
2013-10-24 03:52:00,37.6,32.9,28.76,ESE,108,0.0,2.0,83,0.00,,,0.00,meteohub,2013-10-24 07:52:00,
2013-10-24 03:57:00,37.6,33.3,28.76,NNE,32,1.0,3.0,84,0.00,,,0.00,meteohub,2013-10-24 07:57:00,
2013-10-24 04:02:00,37.4,33.1,28.76,SE,128,1.0,3.0,84,0.00,,,0.00,meteohub,2013-10-24 08:02:00,
2013-10-24 04:07:00,37.6,33.3,28.77,NW,306,2.0,5.0,84,0.00,,,0.00,meteohub,2013-10-24 08:07:00,
2013-10-24 04:12:00,37.6,33.4,28.77,ESE,107,4.0,5.0,85,0.00,,,0.00,meteohub,2013-10-24 08:12:00,
2013-10-24 04:17:00,37.6,33.4,28.77,ENE,58,2.0,7.0,85,0.00,,,0.00,meteohub,2013-10-24 08:17:00,
2013-10-24 04:22:00,37.6,33.8,28.77,WNW,298,0.0,7.0,86,0.00,,,0.00,meteohub,2013-10-24 08:22:00,
2013-10-24 04:27:00,37.4,33.8,28.77,NNE,22,0.0,7.0,87,0.00,,,0.00,meteohub,2013-10-24 08:27:00,
2013-10-24 04:32:00,37.2,33.8,28.77,WNW,292,2.0,5.0,87,0.00,,,0.00,meteohub,2013-10-24 08:32:00,
2013-10-24 04:37:00,37.0,33.8,28.77,ESE,116,0.0,5.0,88,0.00,,,0.00,meteohub,2013-10-24 08:37:00,
2013-10-24 04:42:00,36.9,33.6,28.77,ESE,106,0.0,3.0,88,0.00,,,0.00,meteohub,2013-10-24 08:42:00,
2013-10-24 04:47:00,36.7,33.8,28.77,East,101,0.0,2.0,89,0.00,,,0.00,meteohub,2013-10-24 08:47:00,
2013-10-24 04:52:00,36.7,33.8,28.77,SE,127,0.0,2.0,89,0.00,,,0.00,meteohub,2013-10-24 08:52:00,
2013-10-24 04:57:00,36.7,33.8,28.77,SE,144,1.0,2.0,89,0.00,,,0.00,meteohub,2013-10-24 08:57:00,
2013-10-24 05:02:00,36.7,33.8,28.77,ENE,76,0.0,2.0,89,0.00,,,0.00,meteohub,2013-10-24 09:02:00,
2013-10-24 05:07:00,36.7,34.3,28.78,North,355,1.0,2.0,91,0.00,,,0.00,meteohub,2013-10-24 09:07:00,
2013-10-24 05:12:00,36.7,34.3,28.78,North,355,0.0,2.0,91,0.00,,,0.00,meteohub,2013-10-24 09:12:00,
2013-10-24 05:17:00,36.5,34.2,28.78,North,5,0.0,2.0,91,0.00,,,0.00,meteohub,2013-10-24 09:17:00,
2013-10-24 05:22:00,36.3,34.0,28.78,North,5,0.0,2.0,91,0.00,,,0.00,meteohub,2013-10-24 09:22:00,
2013-10-24 05:27:00,36.1,33.8,28.79,North,5,0.0,0.0,91,0.00,,,0.00,meteohub,2013-10-24 09:27:00,
2013-10-24 05:32:00,36.1,34.0,28.79,North,9,0.0,0.0,92,0.00,,,0.00,meteohub,2013-10-24 09:32:00,
2013-10-24 05:37:00,36.3,34.2,28.79,North,9,0.0,1.0,92,0.00,,,0.00,meteohub,2013-10-24 09:37:00,
2013-10-24 05:42:00,36.1,34.3,28.80,NW,325,0.0,2.0,93,0.00,,,0.00,meteohub,2013-10-24 09:42:00,
2013-10-24 05:47:00,36.1,34.0,28.80,NNE,24,0.0,2.0,92,0.00,,,0.00,meteohub,2013-10-24 09:47:00,
2013-10-24 05:52:00,35.8,33.6,28.80,SSE,167,2.0,2.0,92,0.00,,,0.00,meteohub,2013-10-24 09:52:00,
2013-10-24 05:57:00,35.6,33.4,28.80,NW,317,0.0,2.0,92,0.01,,,0.01,meteohub,2013-10-24 09:57:00,
2013-10-24 06:02:00,35.4,33.3,28.80,South,186,0.0,2.0,92,0.01,,,0.01,meteohub,2013-10-24 10:02:00,
2013-10-24 06:07:00,35.2,33.4,28.80,WSW,252,0.0,2.0,93,0.01,,,0.01,meteohub,2013-10-24 10:07:00,
2013-10-24 06:12:00,35.2,33.4,28.80,WSW,238,0.0,2.0,93,0.01,,,0.01,meteohub,2013-10-24 10:12:00,
2013-10-24 06:17:00,35.2,33.4,28.80,South,190,0.0,2.0,93,0.01,,,0.01,meteohub,2013-10-24 10:17:00,
2013-10-24 06:22:00,35.2,33.4,28.80,South,172,0.0,2.0,93,0.01,,,0.01,meteohub,2013-10-24 10:22:00,
2013-10-24 06:27:00,35.2,33.4,28.80,SE,132,0.0,2.0,93,0.02,,,0.02,meteohub,2013-10-24 10:27:00,
2013-10-24 06:32:00,35.4,33.6,28.81,NNE,33,0.0,4.0,93,0.02,,,0.02,meteohub,2013-10-24 10:32:00,
2013-10-24 06:37:00,35.8,34.0,28.81,East,80,2.0,4.0,93,0.02,,,0.02,meteohub,2013-10-24 10:37:00,
2013-10-24 06:42:00,35.8,33.6,28.81,East,83,1.0,4.0,92,0.02,,,0.02,meteohub,2013-10-24 10:42:00,
2013-10-24 06:47:00,36.0,33.6,28.81,SSE,161,0.0,3.0,91,0.02,,,0.02,meteohub,2013-10-24 10:47:00,
2013-10-24 06:52:00,36.0,33.3,28.81,SE,130,2.0,5.0,90,0.01,,,0.02,meteohub,2013-10-24 10:52:00,
2013-10-24 06:57:00,36.1,33.3,28.81,East,85,0.0,5.0,89,0.01,,,0.02,meteohub,2013-10-24 10:57:00,
2013-10-24 07:02:00,36.1,32.7,28.81,East,86,0.0,5.0,87,0.01,,,0.02,meteohub,2013-10-24 11:02:00,
2013-10-24 07:07:00,36.3,32.5,28.81,WNW,297,1.0,3.0,86,0.01,,,0.02,meteohub,2013-10-24 11:07:00,
2013-10-24 07:12:00,36.5,32.7,28.81,SSE,165,1.0,6.0,86,0.01,,,0.02,meteohub,2013-10-24 11:12:00,
2013-10-24 07:17:00,36.7,32.5,28.82,East,98,2.0,6.0,85,0.01,,,0.02,meteohub,2013-10-24 11:17:00,
2013-10-24 07:22:00,36.7,32.5,28.82,South,189,0.0,6.0,85,0.00,,,0.02,meteohub,2013-10-24 11:22:00,
2013-10-24 07:27:00,36.7,32.4,28.81,East,92,1.0,5.0,84,0.00,,,0.02,meteohub,2013-10-24 11:27:00,
2013-10-24 07:32:00,36.7,32.4,28.81,NE,38,0.0,5.0,84,0.00,,,0.02,meteohub,2013-10-24 11:32:00,
2013-10-24 07:37:00,36.9,32.2,28.82,SSW,200,0.0,5.0,83,0.00,,,0.02,meteohub,2013-10-24 11:37:00,
2013-10-24 07:42:00,36.9,32.2,28.82,ESE,113,0.0,5.0,83,0.00,,,0.02,meteohub,2013-10-24 11:42:00,
2013-10-24 07:47:00,36.9,32.2,28.82,ESE,105,1.0,4.0,83,0.00,,,0.02,meteohub,2013-10-24 11:47:00,
2013-10-24 07:52:00,36.9,32.2,28.82,SW,225,1.0,5.0,83,0.00,,,0.02,meteohub,2013-10-24 11:52:00,
2013-10-24 07:57:00,36.9,32.2,28.82,South,172,1.0,5.0,83,0.00,,,0.02,meteohub,2013-10-24 11:57:00,
2013-10-24 08:02:00,36.9,32.2,28.82,East,96,1.0,5.0,83,0.00,,,0.02,meteohub,2013-10-24 12:02:00,
2013-10-24 08:07:00,37.0,31.8,28.82,South,176,2.0,6.0,81,0.00,,,0.02,meteohub,2013-10-24 12:07:00,
2013-10-24 08:12:00,37.0,31.8,28.83,SSE,166,1.0,6.0,81,0.00,,,0.02,meteohub,2013-10-24 12:12:00,
2013-10-24 08:17:00,37.2,31.6,28.83,North,351,2.0,6.0,80,0.00,,,0.02,meteohub,2013-10-24 12:17:00,
2013-10-24 08:22:00,37.2,31.6,28.83,East,101,2.0,4.0,80,0.00,,,0.02,meteohub,2013-10-24 12:22:00,
2013-10-24 08:27:00,37.4,31.8,28.83,WNW,300,5.0,5.0,80,0.00,,,0.02,meteohub,2013-10-24 12:27:00,
2013-10-24 08:33:00,37.4,32.4,28.84,WNW,299,3.0,7.0,82,0.00,,,0.02,meteohub,2013-10-24 12:33:00,
2013-10-24 08:39:00,37.2,32.5,28.84,NW,315,2.0,7.0,83,0.00,,,0.02,meteohub,2013-10-24 12:39:00,
2013-10-24 08:45:00,37.0,32.7,28.84,NNE,22,1.0,4.0,84,0.00,,,0.02,meteohub,2013-10-24 12:45:00,
2013-10-24 08:51:00,36.9,32.2,28.84,WNW,294,1.0,4.0,83,0.00,,,0.02,meteohub,2013-10-24 12:51:00,
2013-10-24 08:57:00,36.7,32.4,28.84,WNW,296,2.0,4.0,84,0.00,,,0.02,meteohub,2013-10-24 12:57:00,
2013-10-24 09:02:00,36.7,32.5,28.84,WNW,297,2.0,4.0,85,0.00,,,0.02,meteohub,2013-10-24 13:02:00,
2013-10-24 09:09:00,36.5,32.7,28.84,NW,304,3.0,4.0,86,0.00,,,0.02,meteohub,2013-10-24 13:09:00,
2013-10-24 09:15:00,36.3,32.5,28.84,WNW,303,1.0,5.0,86,0.00,,,0.02,meteohub,2013-10-24 13:15:00,
2013-10-24 09:21:00,36.3,32.5,28.84,WNW,298,4.0,5.0,86,0.00,,,0.02,meteohub,2013-10-24 13:21:00,
2013-10-24 09:27:00,36.5,32.7,28.84,WNW,295,2.0,5.0,86,0.00,,,0.02,meteohub,2013-10-24 13:27:00,
2013-10-24 09:32:00,36.7,33.3,28.84,NW,311,1.0,5.0,87,0.00,,,0.02,meteohub,2013-10-24 13:32:00,
2013-10-24 09:37:00,36.7,33.3,28.84,WNW,296,1.0,5.0,87,0.00,,,0.02,meteohub,2013-10-24 13:37:00,
2013-10-24 09:42:00,37.2,33.8,28.84,WNW,302,4.0,5.0,87,0.00,,,0.02,meteohub,2013-10-24 13:42:00,
2013-10-24 09:47:00,37.9,33.8,28.84,WNW,294,3.0,4.0,85,0.00,,,0.02,meteohub,2013-10-24 13:47:00,
2013-10-24 09:52:00,38.5,33.8,28.84,WNW,294,4.0,5.0,83,0.00,,,0.02,meteohub,2013-10-24 13:52:00,
2013-10-24 09:57:00,38.5,33.8,28.84,WNW,294,2.0,6.0,83,0.00,,,0.02,meteohub,2013-10-24 13:57:00,
2013-10-24 10:02:00,38.5,33.8,28.84,WNW,296,1.0,6.0,83,0.00,,,0.02,meteohub,2013-10-24 14:02:00,
2013-10-24 10:07:00,38.7,34.5,28.84,WNW,299,1.0,6.0,85,0.00,,,0.02,meteohub,2013-10-24 14:07:00,
2013-10-24 10:12:00,38.8,34.7,28.84,NW,304,2.0,5.0,85,0.00,,,0.02,meteohub,2013-10-24 14:12:00,
2013-10-24 10:17:00,38.8,34.2,28.84,NW,323,0.0,5.0,83,0.00,,,0.02,meteohub,2013-10-24 14:17:00,
2013-10-24 10:22:00,39.0,34.9,28.84,NW,323,0.0,5.0,85,0.00,,,0.02,meteohub,2013-10-24 14:22:00,
2013-10-24 10:27:00,39.4,34.7,28.84,NNW,340,1.0,3.0,83,0.00,,,0.02,meteohub,2013-10-24 14:27:00,
2013-10-24 10:32:00,39.6,34.0,28.85,WNW,287,3.0,5.0,80,0.00,,,0.02,meteohub,2013-10-24 14:32:00,
2013-10-24 10:37:00,39.7,35.1,28.85,WNW,287,1.0,5.0,83,0.00,,,0.02,meteohub,2013-10-24 14:37:00,
2013-10-24 10:42:00,39.7,33.8,28.85,WNW,301,3.0,5.0,79,0.00,,,0.02,meteohub,2013-10-24 14:42:00,
2013-10-24 10:47:00,39.9,32.7,28.85,WNW,292,5.0,6.0,75,0.00,,,0.02,meteohub,2013-10-24 14:47:00,
2013-10-24 10:52:00,40.1,33.1,28.84,WNW,287,2.0,6.0,76,0.00,,,0.02,meteohub,2013-10-24 14:52:00,
2013-10-24 10:57:00,40.3,33.1,28.84,WNW,300,1.0,6.0,75,0.00,,,0.02,meteohub,2013-10-24 14:57:00,
2013-10-24 11:04:00,40.6,32.4,28.84,WNW,292,1.0,6.0,72,0.00,,,0.02,meteohub,2013-10-24 15:04:00,
2013-10-24 11:10:00,40.6,32.7,28.85,NNW,333,1.0,6.0,73,0.00,,,0.02,meteohub,2013-10-24 15:10:00,
2013-10-24 11:16:00,40.5,34.2,28.85,NNW,338,3.0,5.0,78,0.00,,,0.02,meteohub,2013-10-24 15:16:00,
2013-10-24 11:22:00,39.9,34.3,28.85,NNW,331,0.0,4.0,80,0.00,,,0.02,meteohub,2013-10-24 15:22:00,
2013-10-24 11:27:00,39.9,34.5,28.85,NW,319,0.0,4.0,81,0.00,,,0.02,meteohub,2013-10-24 15:27:00,
2013-10-24 11:32:00,40.1,33.4,28.85,West,273,0.0,4.0,77,0.00,,,0.02,meteohub,2013-10-24 15:32:00,
2013-10-24 11:37:00,40.5,34.2,28.85,WNW,298,0.0,2.0,78,0.00,,,0.02,meteohub,2013-10-24 15:37:00,
2013-10-24 11:42:00,41.0,34.0,28.85,NW,309,2.0,4.0,76,0.00,,,0.02,meteohub,2013-10-24 15:42:00,
2013-10-24 11:47:00,41.4,33.6,28.85,WNW,296,0.0,5.0,74,0.00,,,0.02,meteohub,2013-10-24 15:47:00,
2013-10-24 11:52:00,42.1,32.0,28.85,WNW,300,1.0,5.0,67,0.00,,,0.02,meteohub,2013-10-24 15:52:00,
2013-10-24 11:57:00,42.6,32.0,28.85,WNW,298,0.0,6.0,66,0.00,,,0.02,meteohub,2013-10-24 15:57:00,
2013-10-24 12:02:00,42.6,31.3,28.85,WNW,300,3.0,6.0,64,0.00,,,0.02,meteohub,2013-10-24 16:02:00,
2013-10-24 12:07:00,42.3,30.6,28.85,WNW,294,2.0,6.0,63,0.01,,,0.03,meteohub,2013-10-24 16:07:00,
2013-10-24 12:12:00,42.1,29.1,28.85,WNW,298,4.0,6.0,60,0.01,,,0.03,meteohub,2013-10-24 16:12:00,
2013-10-24 12:17:00,41.7,28.9,28.85,WNW,297,4.0,7.0,60,0.01,,,0.03,meteohub,2013-10-24 16:17:00,
2013-10-24 12:22:00,41.4,30.6,28.85,WNW,302,3.0,7.0,65,0.01,,,0.03,meteohub,2013-10-24 16:22:00,
2013-10-24 12:27:00,41.2,30.4,28.85,NW,314,0.0,7.0,65,0.01,,,0.03,meteohub,2013-10-24 16:27:00,
2013-10-24 12:32:00,40.8,31.1,28.85,NW,314,5.0,7.0,68,0.01,,,0.03,meteohub,2013-10-24 16:32:00,
2013-10-24 12:37:00,40.6,30.6,28.85,NNW,346,1.0,6.0,67,0.01,,,0.03,meteohub,2013-10-24 16:37:00,
2013-10-24 12:42:00,40.1,30.7,28.86,NW,315,4.0,7.0,69,0.01,,,0.03,meteohub,2013-10-24 16:42:00,
2013-10-24 12:47:00,39.9,31.6,28.86,NW,315,1.0,7.0,72,0.01,,,0.03,meteohub,2013-10-24 16:47:00,
2013-10-24 12:52:00,40.1,30.4,28.85,WNW,302,3.0,7.0,68,0.01,,,0.03,meteohub,2013-10-24 16:52:00,
2013-10-24 12:57:00,40.5,31.1,28.86,NNW,333,4.0,4.0,69,0.01,,,0.03,meteohub,2013-10-24 16:57:00,
2013-10-24 13:02:00,40.6,31.3,28.85,WNW,296,1.0,6.0,69,0.01,,,0.03,meteohub,2013-10-24 17:02:00,
2013-10-24 13:07:00,40.8,30.7,28.85,WNW,303,2.0,6.0,67,0.00,,,0.03,meteohub,2013-10-24 17:07:00,
2013-10-24 13:12:00,41.4,30.6,28.85,WNW,300,2.0,7.0,65,0.00,,,0.03,meteohub,2013-10-24 17:12:00,
2013-10-24 13:17:00,41.5,30.2,28.84,WNW,298,3.0,7.0,64,0.00,,,0.03,meteohub,2013-10-24 17:17:00,
2013-10-24 13:22:00,41.7,30.7,28.84,SSW,203,1.0,7.0,65,0.00,,,0.03,meteohub,2013-10-24 17:22:00,
2013-10-24 13:27:00,41.7,30.0,28.84,NW,325,1.0,7.0,63,0.00,,,0.03,meteohub,2013-10-24 17:27:00,
2013-10-24 13:32:00,41.5,29.5,28.84,NNW,330,5.0,7.0,62,0.00,,,0.03,meteohub,2013-10-24 17:32:00,
2013-10-24 13:37:00,41.7,30.0,28.84,NW,313,0.0,7.0,63,0.00,,,0.03,meteohub,2013-10-24 17:37:00,
2013-10-24 13:42:00,41.7,29.7,28.84,WNW,300,2.0,7.0,62,0.00,,,0.03,meteohub,2013-10-24 17:42:00,
2013-10-24 13:47:00,41.5,29.5,28.84,WNW,300,2.0,6.0,62,0.00,,,0.03,meteohub,2013-10-24 17:47:00,
2013-10-24 13:52:00,41.5,29.5,28.85,NW,312,0.0,5.0,62,0.00,,,0.03,meteohub,2013-10-24 17:52:00,
2013-10-24 13:57:00,41.4,29.7,28.84,NW,304,1.0,5.0,63,0.00,,,0.03,meteohub,2013-10-24 17:57:00,
2013-10-24 14:02:00,41.4,29.3,28.84,NNW,336,0.0,6.0,62,0.00,,,0.03,meteohub,2013-10-24 18:02:00,
2013-10-24 14:07:00,41.7,30.7,28.84,North,0,3.0,6.0,65,0.00,,,0.03,meteohub,2013-10-24 18:07:00,
2013-10-24 14:12:00,42.1,30.7,28.84,NW,322,1.0,5.0,64,0.00,,,0.03,meteohub,2013-10-24 18:12:00,
2013-10-24 14:17:00,42.3,31.6,28.84,WNW,296,2.0,5.0,66,0.00,,,0.03,meteohub,2013-10-24 18:17:00,
2013-10-24 14:22:00,42.4,31.8,28.84,NW,323,0.0,5.0,66,0.00,,,0.03,meteohub,2013-10-24 18:22:00,
2013-10-24 14:27:00,42.6,31.6,28.84,WNW,300,2.0,4.0,65,0.00,,,0.03,meteohub,2013-10-24 18:27:00,
2013-10-24 14:32:00,42.4,31.5,28.84,NW,309,2.0,3.0,65,0.00,,,0.03,meteohub,2013-10-24 18:32:00,
2013-10-24 14:37:00,42.4,31.5,28.84,WNW,298,3.0,3.0,65,0.00,,,0.03,meteohub,2013-10-24 18:37:00,
2013-10-24 14:42:00,42.3,30.9,28.84,NW,306,0.0,3.0,64,0.00,,,0.03,meteohub,2013-10-24 18:42:00,
2013-10-24 14:47:00,41.7,30.4,28.85,NW,317,5.0,7.0,64,0.00,,,0.03,meteohub,2013-10-24 18:47:00,
2013-10-24 14:52:00,41.2,31.5,28.85,NW,323,2.0,7.0,68,0.00,,,0.03,meteohub,2013-10-24 18:52:00,
2013-10-24 14:57:00,40.6,31.6,28.85,East,89,3.0,7.0,70,0.00,,,0.03,meteohub,2013-10-24 18:57:00,
2013-10-24 15:02:00,40.3,32.0,28.85,ESE,119,1.0,7.0,72,0.00,,,0.03,meteohub,2013-10-24 19:02:00,
2013-10-24 15:07:00,40.8,32.9,28.85,ESE,109,2.0,7.0,73,0.00,,,0.03,meteohub,2013-10-24 19:07:00,
2013-10-24 15:12:00,42.3,33.6,28.85,NW,311,2.0,6.0,71,0.00,,,0.03,meteohub,2013-10-24 19:12:00,
2013-10-24 15:17:00,43.3,32.7,28.85,SSW,209,5.0,6.0,66,0.00,,,0.03,meteohub,2013-10-24 19:17:00,
2013-10-24 15:22:00,44.1,33.1,28.85,NNW,327,3.0,6.0,65,0.00,,,0.03,meteohub,2013-10-24 19:22:00,
2013-10-24 15:27:00,43.9,32.2,28.85,WNW,301,4.0,6.0,63,0.00,,,0.03,meteohub,2013-10-24 19:27:00,
2013-10-24 15:32:00,43.3,32.4,28.85,NW,304,1.0,6.0,65,0.00,,,0.03,meteohub,2013-10-24 19:32:00,
2013-10-24 15:37:00,43.0,32.0,28.85,NW,307,1.0,6.0,65,0.00,,,0.03,meteohub,2013-10-24 19:37:00,
2013-10-24 18:44:00,38.7,31.8,28.89,WNW,298,3.0,6.0,76,0.00,,,0.03,meteohub,2013-10-24 22:44:00,
2013-10-24 18:50:00,38.7,31.8,28.89,WNW,298,2.0,3.0,76,0.00,,,0.03,meteohub,2013-10-24 22:50:00,
2013-10-24 18:56:00,38.7,31.8,28.90,WNW,300,1.0,5.0,76,0.00,,,0.03,meteohub,2013-10-24 22:56:00,
2013-10-24 19:02:00,38.7,31.8,28.90,WNW,297,3.0,5.0,76,0.00,,,0.03,meteohub,2013-10-24 23:02:00,
2013-10-24 19:07:00,38.7,32.0,28.90,WNW,294,2.0,4.0,77,0.00,,,0.03,meteohub,2013-10-24 23:07:00,
2013-10-24 19:12:00,38.7,31.8,28.90,WNW,293,2.0,4.0,76,0.00,,,0.03,meteohub,2013-10-24 23:12:00,
2013-10-24 19:17:00,38.8,32.0,28.90,WNW,303,1.0,4.0,76,0.00,,,0.03,meteohub,2013-10-24 23:17:00,
2013-10-24 19:22:00,38.8,31.6,28.91,WNW,299,2.0,4.0,75,0.00,,,0.03,meteohub,2013-10-24 23:22:00,
2013-10-24 19:27:00,38.8,31.6,28.91,NW,306,3.0,4.0,75,0.00,,,0.03,meteohub,2013-10-24 23:27:00,
2013-10-24 19:32:00,38.8,31.6,28.91,NW,306,2.0,6.0,75,0.00,,,0.03,meteohub,2013-10-24 23:32:00,
2013-10-24 19:38:00,38.8,31.6,28.91,WNW,295,1.0,6.0,75,0.00,,,0.03,meteohub,2013-10-24 23:38:00,
2013-10-24 19:44:00,38.8,32.0,28.91,WNW,302,2.0,5.0,76,0.00,,,0.03,meteohub,2013-10-24 23:44:00,
2013-10-24 19:50:00,38.8,32.0,28.91,WNW,302,1.0,4.0,76,0.00,,,0.03,meteohub,2013-10-24 23:50:00,
2013-10-24 19:57:00,38.8,32.0,28.91,WNW,302,2.0,4.0,76,0.00,,,0.03,meteohub,2013-10-24 23:57:00,
2013-10-24 20:02:00,38.7,31.8,28.91,WNW,295,2.0,5.0,76,0.00,,,0.03,meteohub,2013-10-25 00:02:00,
2013-10-24 20:07:00,38.7,31.8,28.91,WNW,296,1.0,5.0,76,0.00,,,0.03,meteohub,2013-10-25 00:07:00,
2013-10-24 20:12:00,38.7,31.8,28.92,WNW,296,1.0,5.0,76,0.00,,,0.03,meteohub,2013-10-25 00:12:00,
2013-10-24 20:18:00,38.7,32.0,28.92,WNW,296,2.0,4.0,77,0.00,,,0.03,meteohub,2013-10-25 00:18:00,
2013-10-24 20:24:00,38.7,32.4,28.92,NW,309,2.0,4.0,78,0.00,,,0.03,meteohub,2013-10-25 00:24:00,
2013-10-24 20:30:00,38.5,32.2,28.92,WNW,298,1.0,4.0,78,0.00,,,0.03,meteohub,2013-10-25 00:30:00,
2013-10-24 20:36:00,38.3,32.0,28.92,WNW,300,1.0,5.0,78,0.00,,,0.03,meteohub,2013-10-25 00:36:00,
2013-10-24 20:42:00,38.1,32.2,28.92,NW,304,0.0,5.0,79,0.00,,,0.03,meteohub,2013-10-25 00:42:00,
2013-10-24 20:47:00,37.9,32.0,28.92,East,92,1.0,3.0,79,0.00,,,0.03,meteohub,2013-10-25 00:47:00,
2013-10-24 20:52:00,37.9,31.6,28.92,East,95,0.0,3.0,78,0.00,,,0.03,meteohub,2013-10-25 00:52:00,
2013-10-24 20:57:00,37.8,31.5,28.93,South,171,2.0,2.0,78,0.00,,,0.03,meteohub,2013-10-25 00:57:00,
2013-10-24 21:02:00,37.8,31.5,28.93,SSW,193,1.0,5.0,78,0.00,,,0.03,meteohub,2013-10-25 01:02:00,
2013-10-24 21:09:00,37.6,31.3,28.92,WNW,302,1.0,5.0,78,0.00,,,0.03,meteohub,2013-10-25 01:09:00,
2013-10-24 21:16:00,37.6,31.3,28.92,SE,127,1.0,4.0,78,0.00,,,0.03,meteohub,2013-10-25 01:16:00,
2013-10-24 21:22:00,37.6,31.3,28.93,SSE,154,2.0,3.0,78,0.00,,,0.03,meteohub,2013-10-25 01:22:00,
2013-10-24 21:27:00,37.4,31.1,28.93,ESE,117,0.0,3.0,78,0.00,,,0.03,meteohub,2013-10-25 01:27:00,
2013-10-24 21:32:00,37.2,30.7,28.93,SSE,161,1.0,6.0,77,0.00,,,0.03,meteohub,2013-10-25 01:32:00,
2013-10-24 21:37:00,37.4,30.9,28.93,ESE,117,0.0,6.0,77,0.00,,,0.03,meteohub,2013-10-25 01:37:00,
2013-10-24 21:42:00,37.2,30.7,28.94,SSE,163,1.0,6.0,77,0.00,,,0.03,meteohub,2013-10-25 01:42:00,
2013-10-24 21:47:00,37.2,30.7,28.94,SE,142,1.0,5.0,77,0.00,,,0.03,meteohub,2013-10-25 01:47:00,
2013-10-24 21:52:00,37.2,30.7,28.94,East,82,0.0,4.0,77,0.00,,,0.03,meteohub,2013-10-25 01:52:00,
2013-10-24 21:57:00,37.2,30.7,28.94,SE,140,0.0,4.0,77,0.00,,,0.03,meteohub,2013-10-25 01:57:00,
2013-10-24 22:02:00,37.2,30.4,28.94,ENE,66,0.0,5.0,76,0.00,,,0.03,meteohub,2013-10-25 02:02:00,
2013-10-24 22:07:00,37.2,30.7,28.94,SSW,202,1.0,5.0,77,0.00,,,0.03,meteohub,2013-10-25 02:07:00,
2013-10-24 22:12:00,37.0,30.6,28.94,NNW,347,1.0,5.0,77,0.00,,,0.03,meteohub,2013-10-25 02:12:00,
2013-10-24 22:17:00,36.9,30.6,28.94,WNW,297,2.0,4.0,78,0.00,,,0.03,meteohub,2013-10-25 02:17:00,
2013-10-24 22:22:00,36.9,30.6,28.94,WNW,298,1.0,3.0,78,0.00,,,0.03,meteohub,2013-10-25 02:22:00,
2013-10-24 22:29:00,36.7,30.6,28.94,WNW,294,2.0,3.0,78,0.00,,,0.03,meteohub,2013-10-25 02:29:00,
2013-10-24 22:35:00,36.7,30.6,28.94,WNW,296,3.0,3.0,78,0.00,,,0.03,meteohub,2013-10-25 02:35:00,
2013-10-24 22:41:00,36.5,30.6,28.94,WNW,292,2.0,4.0,79,0.00,,,0.03,meteohub,2013-10-25 02:41:00,
2013-10-24 22:47:00,36.3,30.4,28.94,WNW,295,0.0,4.0,79,0.00,,,0.03,meteohub,2013-10-25 02:47:00,
2013-10-24 22:52:00,36.3,30.2,28.94,WNW,298,1.0,4.0,78,0.00,,,0.03,meteohub,2013-10-25 02:52:00,
2013-10-24 22:57:00,36.1,30.0,28.95,NNE,33,0.0,3.0,78,0.00,,,0.03,meteohub,2013-10-25 02:57:00,
2013-10-24 23:02:00,36.1,30.2,28.95,North,0,1.0,3.0,79,0.00,,,0.03,meteohub,2013-10-25 03:02:00,
2013-10-24 23:07:00,36.0,30.0,28.95,North,5,1.0,3.0,79,0.00,,,0.03,meteohub,2013-10-25 03:07:00,
2013-10-24 23:12:00,35.8,29.8,28.95,ESE,108,0.0,2.0,79,0.00,,,0.03,meteohub,2013-10-25 03:12:00,
2013-10-24 23:17:00,35.8,29.8,28.95,ESE,105,0.0,2.0,79,0.00,,,0.03,meteohub,2013-10-25 03:17:00,
2013-10-24 23:22:00,35.6,29.7,28.95,SE,137,0.0,3.0,79,0.00,,,0.03,meteohub,2013-10-25 03:22:00,
2013-10-24 23:27:00,35.4,29.8,28.95,SE,141,0.0,3.0,80,0.00,,,0.03,meteohub,2013-10-25 03:27:00,
2013-10-24 23:32:00,35.1,29.5,28.95,SE,135,0.0,3.0,80,0.00,,,0.03,meteohub,2013-10-25 03:32:00,
2013-10-24 23:37:00,34.9,29.7,28.95,East,88,0.0,2.0,81,0.00,,,0.03,meteohub,2013-10-25 03:37:00,
2013-10-24 23:42:00,34.7,29.5,28.95,East,88,0.0,2.0,81,0.00,,,0.03,meteohub,2013-10-25 03:42:00,
2013-10-24 23:47:00,34.5,29.3,28.95,SSW,202,0.0,1.0,81,0.00,,,0.03,meteohub,2013-10-25 03:47:00,
2013-10-24 23:52:00,34.5,29.3,28.95,ESE,105,1.0,1.0,81,0.00,,,0.03,meteohub,2013-10-25 03:52:00,
2013-10-24 23:57:00,34.5,29.3,28.95,ESE,102,0.0,3.0,81,0.00,,,0.03,meteohub,2013-10-25 03:57:00,